sensor_id;sensor_type;location;lat;lon;timestamp;P1;durP1;ratioP1;P2;durP2;ratioP2
10565;SDS011;5331;48.148;16.326;2022-08-05T00:01:12;5.85;;;5.43;;
10565;SDS011;5331;48.148;16.326;2022-08-05T00:03:41;5.97;;;5.43;;
10565;SDS011;5331;48.148;16.326;2022-08-05T00:06:09;5.55;;;5.05;;
10565;SDS011;5331;48.148;16.326;2022-08-05T00:08:37;6.07;;;5.57;;
10565;SDS011;5331;48.148;16.326;2022-08-05T00:11:04;6.20;;;5.70;;
10565;SDS011;5331;48.148;16.326;2022-08-05T00:13:33;5.70;;;5.20;;
10565;SDS011;5331;48.148;16.326;2022-08-05T00:16:01;6.05;;;5.57;;
10565;SDS011;5331;48.148;16.326;2022-08-05T00:18:29;5.72;;;5.20;;
10565;SDS011;5331;48.148;16.326;2022-08-05T00:20:58;5.75;;;5.30;;
10565;SDS011;5331;48.148;16.326;2022-08-05T00:23:25;5.93;;;5.22;;
10565;SDS011;5331;48.148;16.326;2022-08-05T00:25:51;5.82;;;5.25;;
10565;SDS011;5331;48.148;16.326;2022-08-05T00:28:18;5.93;;;5.43;;
10565;SDS011;5331;48.148;16.326;2022-08-05T00:30:45;5.40;;;4.90;;
10565;SDS011;5331;48.148;16.326;2022-08-05T00:33:12;5.25;;;4.75;;
10565;SDS011;5331;48.148;16.326;2022-08-05T00:35:41;5.50;;;5.00;;
10565;SDS011;5331;48.148;16.326;2022-08-05T00:38:09;5.50;;;5.03;;
10565;SDS011;5331;48.148;16.326;2022-08-05T00:40:44;5.65;;;5.15;;
10565;SDS011;5331;48.148;16.326;2022-08-05T00:43:12;6.25;;;5.65;;
10565;SDS011;5331;48.148;16.326;2022-08-05T00:45:39;6.18;;;5.57;;
10565;SDS011;5331;48.148;16.326;2022-08-05T00:48:07;5.70;;;5.20;;
10565;SDS011;5331;48.148;16.326;2022-08-05T00:50:34;5.32;;;4.90;;
10565;SDS011;5331;48.148;16.326;2022-08-05T00:53:01;5.28;;;4.78;;
10565;SDS011;5331;48.148;16.326;2022-08-05T00:55:29;5.57;;;5.07;;
10565;SDS011;5331;48.148;16.326;2022-08-05T00:57:56;6.35;;;5.75;;
10565;SDS011;5331;48.148;16.326;2022-08-05T01:00:23;6.18;;;5.68;;
10565;SDS011;5331;48.148;16.326;2022-08-05T01:02:50;6.00;;;5.50;;
10565;SDS011;5331;48.148;16.326;2022-08-05T01:05:17;5.70;;;5.30;;
10565;SDS011;5331;48.148;16.326;2022-08-05T01:07:44;6.22;;;5.63;;
10565;SDS011;5331;48.148;16.326;2022-08-05T01:10:11;5.88;;;5.38;;
10565;SDS011;5331;48.148;16.326;2022-08-05T01:12:44;5.75;;;5.25;;
10565;SDS011;5331;48.148;16.326;2022-08-05T01:15:17;5.72;;;5.32;;
10565;SDS011;5331;48.148;16.326;2022-08-05T01:17:52;7.70;;;5.47;;
10565;SDS011;5331;48.148;16.326;2022-08-05T01:20:25;6.10;;;5.60;;
10565;SDS011;5331;48.148;16.326;2022-08-05T01:23:00;6.32;;;5.72;;
10565;SDS011;5331;48.148;16.326;2022-08-05T01:25:43;5.93;;;5.53;;
10565;SDS011;5331;48.148;16.326;2022-08-05T01:28:30;6.18;;;5.60;;
10565;SDS011;5331;48.148;16.326;2022-08-05T01:31:03;5.90;;;5.35;;
10565;SDS011;5331;48.148;16.326;2022-08-05T01:33:38;5.45;;;5.05;;
10565;SDS011;5331;48.148;16.326;2022-08-05T01:36:09;6.22;;;5.60;;
10565;SDS011;5331;48.148;16.326;2022-08-05T01:38:39;5.88;;;5.32;;
10565;SDS011;5331;48.148;16.326;2022-08-05T01:41:08;5.78;;;5.28;;
10565;SDS011;5331;48.148;16.326;2022-08-05T01:43:37;5.97;;;5.50;;
10565;SDS011;5331;48.148;16.326;2022-08-05T01:46:05;6.05;;;5.55;;
10565;SDS011;5331;48.148;16.326;2022-08-05T01:48:33;5.93;;;5.43;;
10565;SDS011;5331;48.148;16.326;2022-08-05T01:51:02;8.45;;;6.07;;
10565;SDS011;5331;48.148;16.326;2022-08-05T01:53:30;7.22;;;6.60;;
10565;SDS011;5331;48.148;16.326;2022-08-05T01:56:00;6.20;;;5.55;;
10565;SDS011;5331;48.148;16.326;2022-08-05T01:58:28;6.32;;;5.78;;
10565;SDS011;5331;48.148;16.326;2022-08-05T02:00:57;6.05;;;5.55;;
10565;SDS011;5331;48.148;16.326;2022-08-05T02:03:26;6.20;;;5.70;;
10565;SDS011;5331;48.148;16.326;2022-08-05T02:05:57;6.50;;;5.90;;
10565;SDS011;5331;48.148;16.326;2022-08-05T02:08:25;6.13;;;5.63;;
10565;SDS011;5331;48.148;16.326;2022-08-05T02:10:53;5.85;;;5.43;;
10565;SDS011;5331;48.148;16.326;2022-08-05T02:13:27;5.43;;;5.03;;
10565;SDS011;5331;48.148;16.326;2022-08-05T02:16:02;6.32;;;5.82;;
10565;SDS011;5331;48.148;16.326;2022-08-05T02:18:34;6.18;;;5.60;;
10565;SDS011;5331;48.148;16.326;2022-08-05T02:21:07;6.32;;;5.80;;
10565;SDS011;5331;48.148;16.326;2022-08-05T02:23:39;5.82;;;5.32;;
10565;SDS011;5331;48.148;16.326;2022-08-05T02:26:08;6.63;;;5.90;;
10565;SDS011;5331;48.148;16.326;2022-08-05T02:28:37;6.93;;;6.30;;
10565;SDS011;5331;48.148;16.326;2022-08-05T02:31:10;6.78;;;6.10;;
10565;SDS011;5331;48.148;16.326;2022-08-05T02:33:41;5.80;;;5.32;;
10565;SDS011;5331;48.148;16.326;2022-08-05T02:36:15;5.90;;;5.43;;
10565;SDS011;5331;48.148;16.326;2022-08-05T02:38:46;7.55;;;6.25;;
10565;SDS011;5331;48.148;16.326;2022-08-05T02:41:14;5.97;;;5.57;;
10565;SDS011;5331;48.148;16.326;2022-08-05T02:43:43;6.13;;;5.63;;
10565;SDS011;5331;48.148;16.326;2022-08-05T02:46:15;6.10;;;5.60;;
10565;SDS011;5331;48.148;16.326;2022-08-05T02:48:43;6.22;;;5.63;;
10565;SDS011;5331;48.148;16.326;2022-08-05T02:51:12;6.90;;;6.30;;
10565;SDS011;5331;48.148;16.326;2022-08-05T02:53:40;6.57;;;6.03;;
10565;SDS011;5331;48.148;16.326;2022-08-05T02:56:08;6.82;;;6.18;;
10565;SDS011;5331;48.148;16.326;2022-08-05T02:58:38;7.18;;;6.40;;
10565;SDS011;5331;48.148;16.326;2022-08-05T03:01:05;6.32;;;5.82;;
10565;SDS011;5331;48.148;16.326;2022-08-05T03:03:37;5.68;;;5.28;;
10565;SDS011;5331;48.148;16.326;2022-08-05T03:06:05;6.63;;;6.03;;
10565;SDS011;5331;48.148;16.326;2022-08-05T03:08:33;6.55;;;5.95;;
10565;SDS011;5331;48.148;16.326;2022-08-05T03:11:02;6.22;;;5.63;;
10565;SDS011;5331;48.148;16.326;2022-08-05T03:13:29;6.05;;;5.45;;
10565;SDS011;5331;48.148;16.326;2022-08-05T03:15:56;6.45;;;5.90;;
10565;SDS011;5331;48.148;16.326;2022-08-05T03:18:23;6.80;;;6.20;;
10565;SDS011;5331;48.148;16.326;2022-08-05T03:20:51;6.97;;;6.28;;
10565;SDS011;5331;48.148;16.326;2022-08-05T03:23:18;6.70;;;6.10;;
10565;SDS011;5331;48.148;16.326;2022-08-05T03:25:45;6.13;;;5.63;;
10565;SDS011;5331;48.148;16.326;2022-08-05T03:28:12;6.22;;;5.63;;
10565;SDS011;5331;48.148;16.326;2022-08-05T03:30:40;5.88;;;5.47;;
10565;SDS011;5331;48.148;16.326;2022-08-05T03:33:09;5.60;;;5.20;;
10565;SDS011;5331;48.148;16.326;2022-08-05T03:35:37;6.38;;;5.80;;
10565;SDS011;5331;48.148;16.326;2022-08-05T03:38:05;5.75;;;5.35;;
10565;SDS011;5331;48.148;16.326;2022-08-05T03:40:32;6.30;;;5.80;;
10565;SDS011;5331;48.148;16.326;2022-08-05T03:42:59;6.68;;;6.07;;
10565;SDS011;5331;48.148;16.326;2022-08-05T03:45:26;6.28;;;5.72;;
10565;SDS011;5331;48.148;16.326;2022-08-05T03:47:53;6.07;;;5.57;;
10565;SDS011;5331;48.148;16.326;2022-08-05T03:50:20;5.90;;;5.40;;
10565;SDS011;5331;48.148;16.326;2022-08-05T03:52:49;7.00;;;6.30;;
10565;SDS011;5331;48.148;16.326;2022-08-05T03:55:25;5.90;;;5.40;;
10565;SDS011;5331;48.148;16.326;2022-08-05T03:57:54;6.03;;;5.53;;
10565;SDS011;5331;48.148;16.326;2022-08-05T04:00:22;6.57;;;6.00;;
10565;SDS011;5331;48.148;16.326;2022-08-05T04:02:56;7.10;;;6.10;;
10565;SDS011;5331;48.148;16.326;2022-08-05T04:05:28;7.22;;;6.50;;
10565;SDS011;5331;48.148;16.326;2022-08-05T04:07:56;5.75;;;5.25;;
10565;SDS011;5331;48.148;16.326;2022-08-05T04:10:26;6.13;;;5.72;;
10565;SDS011;5331;48.148;16.326;2022-08-05T04:12:54;6.22;;;5.72;;
10565;SDS011;5331;48.148;16.326;2022-08-05T04:15:21;6.68;;;6.07;;
10565;SDS011;5331;48.148;16.326;2022-08-05T04:17:48;6.35;;;5.85;;
10565;SDS011;5331;48.148;16.326;2022-08-05T04:20:18;6.00;;;5.50;;
10565;SDS011;5331;48.148;16.326;2022-08-05T04:22:46;5.93;;;5.53;;
10565;SDS011;5331;48.148;16.326;2022-08-05T04:25:13;6.22;;;5.72;;
10565;SDS011;5331;48.148;16.326;2022-08-05T04:27:42;6.05;;;5.55;;
10565;SDS011;5331;48.148;16.326;2022-08-05T04:30:09;6.93;;;6.32;;
10565;SDS011;5331;48.148;16.326;2022-08-05T04:32:36;5.80;;;5.40;;
10565;SDS011;5331;48.148;16.326;2022-08-05T04:35:03;6.47;;;5.72;;
10565;SDS011;5331;48.148;16.326;2022-08-05T04:37:31;6.03;;;5.50;;
10565;SDS011;5331;48.148;16.326;2022-08-05T04:39:58;5.50;;;5.10;;
10565;SDS011;5331;48.148;16.326;2022-08-05T04:42:25;6.72;;;6.20;;
10565;SDS011;5331;48.148;16.326;2022-08-05T04:44:53;6.40;;;5.82;;
10565;SDS011;5331;48.148;16.326;2022-08-05T04:47:20;6.00;;;5.50;;
10565;SDS011;5331;48.148;16.326;2022-08-05T04:49:47;5.60;;;5.10;;
10565;SDS011;5331;48.148;16.326;2022-08-05T04:52:14;5.65;;;4.82;;
10565;SDS011;5331;48.148;16.326;2022-08-05T04:54:41;5.82;;;5.35;;
10565;SDS011;5331;48.148;16.326;2022-08-05T04:57:08;6.38;;;5.03;;
10565;SDS011;5331;48.148;16.326;2022-08-05T04:59:35;5.93;;;5.43;;
10565;SDS011;5331;48.148;16.326;2022-08-05T05:02:03;6.25;;;5.53;;
10565;SDS011;5331;48.148;16.326;2022-08-05T05:04:30;5.43;;;5.03;;
10565;SDS011;5331;48.148;16.326;2022-08-05T05:06:57;5.65;;;4.90;;
10565;SDS011;5331;48.148;16.326;2022-08-05T05:09:24;6.00;;;5.45;;
10565;SDS011;5331;48.148;16.326;2022-08-05T05:11:50;6.07;;;5.53;;
10565;SDS011;5331;48.148;16.326;2022-08-05T05:14:17;6.40;;;5.80;;
10565;SDS011;5331;48.148;16.326;2022-08-05T05:16:44;6.40;;;5.90;;
10565;SDS011;5331;48.148;16.326;2022-08-05T05:19:12;6.95;;;6.25;;
10565;SDS011;5331;48.148;16.326;2022-08-05T05:21:39;5.88;;;5.47;;
10565;SDS011;5331;48.148;16.326;2022-08-05T05:24:06;6.53;;;5.88;;
10565;SDS011;5331;48.148;16.326;2022-08-05T05:26:33;6.57;;;5.82;;
10565;SDS011;5331;48.148;16.326;2022-08-05T05:29:00;5.50;;;5.05;;
10565;SDS011;5331;48.148;16.326;2022-08-05T05:31:27;6.15;;;5.60;;
10565;SDS011;5331;48.148;16.326;2022-08-05T05:33:54;5.95;;;5.35;;
10565;SDS011;5331;48.148;16.326;2022-08-05T05:36:22;5.20;;;4.80;;
10565;SDS011;5331;48.148;16.326;2022-08-05T05:38:49;6.85;;;4.90;;
10565;SDS011;5331;48.148;16.326;2022-08-05T05:41:16;5.68;;;5.07;;
10565;SDS011;5331;48.148;16.326;2022-08-05T05:43:43;5.70;;;5.20;;
10565;SDS011;5331;48.148;16.326;2022-08-05T05:46:10;5.68;;;5.15;;
10565;SDS011;5331;48.148;16.326;2022-08-05T05:48:37;5.32;;;4.82;;
10565;SDS011;5331;48.148;16.326;2022-08-05T05:51:05;6.85;;;5.07;;
10565;SDS011;5331;48.148;16.326;2022-08-05T05:53:34;7.00;;;5.03;;
10565;SDS011;5331;48.148;16.326;2022-08-05T05:56:01;5.13;;;4.60;;
10565;SDS011;5331;48.148;16.326;2022-08-05T05:58:28;5.53;;;4.47;;
10565;SDS011;5331;48.148;16.326;2022-08-05T06:00:55;6.95;;;5.22;;
10565;SDS011;5331;48.148;16.326;2022-08-05T06:03:22;5.60;;;4.60;;
10565;SDS011;5331;48.148;16.326;2022-08-05T06:05:48;7.10;;;4.97;;
10565;SDS011;5331;48.148;16.326;2022-08-05T06:08:15;5.10;;;4.70;;
10565;SDS011;5331;48.148;16.326;2022-08-05T06:10:44;5.22;;;4.75;;
10565;SDS011;5331;48.148;16.326;2022-08-05T06:13:11;5.40;;;4.78;;
10565;SDS011;5331;48.148;16.326;2022-08-05T06:15:37;5.15;;;4.65;;
10565;SDS011;5331;48.148;16.326;2022-08-05T06:18:05;6.93;;;4.95;;
10565;SDS011;5331;48.148;16.326;2022-08-05T06:20:32;7.55;;;4.75;;
10565;SDS011;5331;48.148;16.326;2022-08-05T06:22:58;8.38;;;5.25;;
10565;SDS011;5331;48.148;16.326;2022-08-05T06:25:25;5.22;;;4.82;;
10565;SDS011;5331;48.148;16.326;2022-08-05T06:27:53;7.47;;;4.65;;
10565;SDS011;5331;48.148;16.326;2022-08-05T06:30:20;4.90;;;4.47;;
10565;SDS011;5331;48.148;16.326;2022-08-05T06:32:50;5.07;;;4.68;;
10565;SDS011;5331;48.148;16.326;2022-08-05T06:35:18;5.22;;;4.70;;
10565;SDS011;5331;48.148;16.326;2022-08-05T06:37:45;5.18;;;4.78;;
10565;SDS011;5331;48.148;16.326;2022-08-05T06:40:11;5.57;;;4.75;;
10565;SDS011;5331;48.148;16.326;2022-08-05T06:42:39;5.72;;;5.13;;
10565;SDS011;5331;48.148;16.326;2022-08-05T06:45:07;6.45;;;4.68;;
10565;SDS011;5331;48.148;16.326;2022-08-05T06:47:35;7.88;;;5.10;;
10565;SDS011;5331;48.148;16.326;2022-08-05T06:50:02;5.78;;;4.85;;
10565;SDS011;5331;48.148;16.326;2022-08-05T06:52:29;5.15;;;4.72;;
10565;SDS011;5331;48.148;16.326;2022-08-05T06:54:56;5.80;;;5.30;;
10565;SDS011;5331;48.148;16.326;2022-08-05T06:57:23;5.03;;;4.70;;
10565;SDS011;5331;48.148;16.326;2022-08-05T06:59:50;4.90;;;4.50;;
10565;SDS011;5331;48.148;16.326;2022-08-05T07:02:18;5.15;;;4.72;;
10565;SDS011;5331;48.148;16.326;2022-08-05T07:04:45;5.60;;;5.10;;
10565;SDS011;5331;48.148;16.326;2022-08-05T07:07:12;5.40;;;5.00;;
10565;SDS011;5331;48.148;16.326;2022-08-05T07:09:39;5.18;;;4.70;;
10565;SDS011;5331;48.148;16.326;2022-08-05T07:12:06;5.15;;;4.80;;
10565;SDS011;5331;48.148;16.326;2022-08-05T07:14:54;6.22;;;5.72;;
10565;SDS011;5331;48.148;16.326;2022-08-05T07:17:39;5.30;;;4.90;;
10565;SDS011;5331;48.148;16.326;2022-08-05T07:20:06;5.20;;;4.90;;
10565;SDS011;5331;48.148;16.326;2022-08-05T07:22:34;5.53;;;5.03;;
10565;SDS011;5331;48.148;16.326;2022-08-05T07:25:01;6.18;;;5.55;;
10565;SDS011;5331;48.148;16.326;2022-08-05T07:27:28;5.80;;;5.30;;
10565;SDS011;5331;48.148;16.326;2022-08-05T07:29:56;5.32;;;4.93;;
10565;SDS011;5331;48.148;16.326;2022-08-05T07:32:23;5.30;;;4.80;;
10565;SDS011;5331;48.148;16.326;2022-08-05T07:34:52;5.60;;;5.20;;
10565;SDS011;5331;48.148;16.326;2022-08-05T07:37:18;5.55;;;5.15;;
10565;SDS011;5331;48.148;16.326;2022-08-05T07:39:46;5.15;;;4.78;;
10565;SDS011;5331;48.148;16.326;2022-08-05T07:42:13;5.38;;;4.90;;
10565;SDS011;5331;48.148;16.326;2022-08-05T07:44:40;5.40;;;4.60;;
10565;SDS011;5331;48.148;16.326;2022-08-05T07:47:07;5.28;;;4.80;;
10565;SDS011;5331;48.148;16.326;2022-08-05T07:49:34;6.68;;;5.15;;
10565;SDS011;5331;48.148;16.326;2022-08-05T07:52:02;5.05;;;4.65;;
10565;SDS011;5331;48.148;16.326;2022-08-05T07:54:29;5.47;;;4.97;;
10565;SDS011;5331;48.148;16.326;2022-08-05T07:56:56;7.20;;;5.22;;
10565;SDS011;5331;48.148;16.326;2022-08-05T07:59:23;5.10;;;4.80;;
10565;SDS011;5331;48.148;16.326;2022-08-05T08:01:50;7.30;;;5.15;;
10565;SDS011;5331;48.148;16.326;2022-08-05T08:04:17;5.72;;;4.75;;
10565;SDS011;5331;48.148;16.326;2022-08-05T08:06:44;5.32;;;4.93;;
10565;SDS011;5331;48.148;16.326;2022-08-05T08:09:13;5.53;;;5.13;;
10565;SDS011;5331;48.148;16.326;2022-08-05T08:11:40;5.38;;;5.00;;
10565;SDS011;5331;48.148;16.326;2022-08-05T08:14:07;5.10;;;4.70;;
10565;SDS011;5331;48.148;16.326;2022-08-05T08:16:34;5.47;;;5.07;;
10565;SDS011;5331;48.148;16.326;2022-08-05T08:19:00;5.45;;;5.13;;
10565;SDS011;5331;48.148;16.326;2022-08-05T08:21:27;5.10;;;4.70;;
10565;SDS011;5331;48.148;16.326;2022-08-05T08:23:54;5.32;;;4.82;;
10565;SDS011;5331;48.148;16.326;2022-08-05T08:26:23;5.00;;;4.60;;
10565;SDS011;5331;48.148;16.326;2022-08-05T08:28:50;5.80;;;5.32;;
10565;SDS011;5331;48.148;16.326;2022-08-05T08:31:16;5.25;;;4.75;;
10565;SDS011;5331;48.148;16.326;2022-08-05T08:33:43;5.28;;;4.82;;
10565;SDS011;5331;48.148;16.326;2022-08-05T08:36:11;5.38;;;4.88;;
10565;SDS011;5331;48.148;16.326;2022-08-05T08:38:37;5.30;;;4.80;;
10565;SDS011;5331;48.148;16.326;2022-08-05T08:41:05;5.78;;;5.22;;
10565;SDS011;5331;48.148;16.326;2022-08-05T08:43:35;5.70;;;5.20;;
10565;SDS011;5331;48.148;16.326;2022-08-05T08:46:02;5.15;;;4.75;;
10565;SDS011;5331;48.148;16.326;2022-08-05T08:48:31;5.25;;;4.75;;
10565;SDS011;5331;48.148;16.326;2022-08-05T08:50:59;5.53;;;4.63;;
10565;SDS011;5331;48.148;16.326;2022-08-05T08:53:28;5.90;;;5.35;;
10565;SDS011;5331;48.148;16.326;2022-08-05T08:56:00;5.38;;;4.90;;
10565;SDS011;5331;48.148;16.326;2022-08-05T08:58:28;5.55;;;5.07;;
10565;SDS011;5331;48.148;16.326;2022-08-05T09:00:57;5.05;;;4.65;;
10565;SDS011;5331;48.148;16.326;2022-08-05T09:03:24;5.38;;;5.07;;
10565;SDS011;5331;48.148;16.326;2022-08-05T09:05:52;5.00;;;4.70;;
10565;SDS011;5331;48.148;16.326;2022-08-05T09:08:19;5.32;;;4.75;;
10565;SDS011;5331;48.148;16.326;2022-08-05T09:10:48;5.65;;;4.95;;
10565;SDS011;5331;48.148;16.326;2022-08-05T09:13:16;5.07;;;4.68;;
10565;SDS011;5331;48.148;16.326;2022-08-05T09:15:43;5.60;;;5.20;;
10565;SDS011;5331;48.148;16.326;2022-08-05T09:18:12;4.25;;;4.05;;
10565;SDS011;5331;48.148;16.326;2022-08-05T09:20:39;5.30;;;4.90;;
10565;SDS011;5331;48.148;16.326;2022-08-05T09:23:09;7.82;;;5.03;;
10565;SDS011;5331;48.148;16.326;2022-08-05T09:25:38;5.85;;;4.95;;
10565;SDS011;5331;48.148;16.326;2022-08-05T09:28:13;5.07;;;4.68;;
10565;SDS011;5331;48.148;16.326;2022-08-05T09:30:41;5.20;;;4.85;;
10565;SDS011;5331;48.148;16.326;2022-08-05T09:33:19;5.18;;;4.68;;
10565;SDS011;5331;48.148;16.326;2022-08-05T09:35:57;5.22;;;4.82;;
10565;SDS011;5331;48.148;16.326;2022-08-05T09:38:25;5.78;;;5.03;;
10565;SDS011;5331;48.148;16.326;2022-08-05T09:40:52;5.32;;;4.90;;
10565;SDS011;5331;48.148;16.326;2022-08-05T09:43:27;5.45;;;4.70;;
10565;SDS011;5331;48.148;16.326;2022-08-05T09:45:56;6.63;;;5.22;;
10565;SDS011;5331;48.148;16.326;2022-08-05T09:48:25;5.00;;;4.70;;
10565;SDS011;5331;48.148;16.326;2022-08-05T09:50:54;5.15;;;4.75;;
10565;SDS011;5331;48.148;16.326;2022-08-05T09:53:22;5.40;;;5.00;;
10565;SDS011;5331;48.148;16.326;2022-08-05T09:55:50;5.30;;;4.90;;
10565;SDS011;5331;48.148;16.326;2022-08-05T09:58:18;5.68;;;5.15;;
10565;SDS011;5331;48.148;16.326;2022-08-05T10:00:51;7.47;;;5.18;;
10565;SDS011;5331;48.148;16.326;2022-08-05T10:03:20;5.55;;;5.22;;
10565;SDS011;5331;48.148;16.326;2022-08-05T10:06:00;5.10;;;4.80;;
10565;SDS011;5331;48.148;16.326;2022-08-05T10:08:27;5.18;;;4.78;;
10565;SDS011;5331;48.148;16.326;2022-08-05T10:10:55;5.50;;;5.10;;
10565;SDS011;5331;48.148;16.326;2022-08-05T10:13:25;5.20;;;4.80;;
10565;SDS011;5331;48.148;16.326;2022-08-05T10:15:54;5.53;;;5.03;;
10565;SDS011;5331;48.148;16.326;2022-08-05T10:18:22;5.40;;;4.90;;
10565;SDS011;5331;48.148;16.326;2022-08-05T10:20:52;5.70;;;5.20;;
10565;SDS011;5331;48.148;16.326;2022-08-05T10:23:23;5.68;;;5.28;;
10565;SDS011;5331;48.148;16.326;2022-08-05T10:25:52;6.07;;;5.47;;
10565;SDS011;5331;48.148;16.326;2022-08-05T10:28:20;5.63;;;5.18;;
10565;SDS011;5331;48.148;16.326;2022-08-05T10:30:49;5.82;;;5.50;;
10565;SDS011;5331;48.148;16.326;2022-08-05T10:33:17;5.70;;;5.20;;
10565;SDS011;5331;48.148;16.326;2022-08-05T10:35:44;5.82;;;5.43;;
10565;SDS011;5331;48.148;16.326;2022-08-05T10:38:11;5.70;;;5.20;;
10565;SDS011;5331;48.148;16.326;2022-08-05T10:40:42;6.05;;;5.57;;
10565;SDS011;5331;48.148;16.326;2022-08-05T10:43:18;6.05;;;5.45;;
10565;SDS011;5331;48.148;16.326;2022-08-05T10:45:57;5.65;;;5.30;;
10565;SDS011;5331;48.148;16.326;2022-08-05T10:48:27;5.60;;;5.20;;
10565;SDS011;5331;48.148;16.326;2022-08-05T10:50:56;5.82;;;5.40;;
10565;SDS011;5331;48.148;16.326;2022-08-05T10:56:22;6.53;;;5.82;;
10565;SDS011;5331;48.148;16.326;2022-08-05T11:01:34;5.78;;;5.47;;
10565;SDS011;5331;48.148;16.326;2022-08-05T11:04:04;5.55;;;5.25;;
10565;SDS011;5331;48.148;16.326;2022-08-05T11:06:34;6.18;;;5.70;;
10565;SDS011;5331;48.148;16.326;2022-08-05T11:09:21;6.35;;;5.85;;
10565;SDS011;5331;48.148;16.326;2022-08-05T11:11:50;5.70;;;5.32;;
10565;SDS011;5331;48.148;16.326;2022-08-05T11:14:22;5.97;;;5.30;;
10565;SDS011;5331;48.148;16.326;2022-08-05T11:19:56;5.57;;;5.18;;
10565;SDS011;5331;48.148;16.326;2022-08-05T11:22:36;5.68;;;5.38;;
10565;SDS011;5331;48.148;16.326;2022-08-05T11:27:56;6.43;;;5.78;;
10565;SDS011;5331;48.148;16.326;2022-08-05T11:31:17;6.18;;;5.78;;
10565;SDS011;5331;48.148;16.326;2022-08-05T11:33:55;6.38;;;5.88;;
10565;SDS011;5331;48.148;16.326;2022-08-05T11:36:48;6.18;;;5.75;;
10565;SDS011;5331;48.148;16.326;2022-08-05T11:42:12;6.13;;;5.72;;
10565;SDS011;5331;48.148;16.326;2022-08-05T11:44:41;6.82;;;6.22;;
10565;SDS011;5331;48.148;16.326;2022-08-05T11:47:09;6.38;;;6.00;;
10565;SDS011;5331;48.148;16.326;2022-08-05T11:49:36;6.65;;;6.05;;
10565;SDS011;5331;48.148;16.326;2022-08-05T11:52:03;6.55;;;6.05;;
10565;SDS011;5331;48.148;16.326;2022-08-05T11:54:30;6.30;;;5.90;;
10565;SDS011;5331;48.148;16.326;2022-08-05T11:56:58;6.13;;;5.82;;
10565;SDS011;5331;48.148;16.326;2022-08-05T11:59:27;5.93;;;5.30;;
10565;SDS011;5331;48.148;16.326;2022-08-05T12:01:57;6.22;;;5.82;;
10565;SDS011;5331;48.148;16.326;2022-08-05T12:04:25;6.13;;;5.70;;
10565;SDS011;5331;48.148;16.326;2022-08-05T12:06:54;6.63;;;6.00;;
10565;SDS011;5331;48.148;16.326;2022-08-05T12:09:24;6.00;;;5.60;;
10565;SDS011;5331;48.148;16.326;2022-08-05T12:11:54;6.25;;;5.75;;
10565;SDS011;5331;48.148;16.326;2022-08-05T12:14:21;6.35;;;5.80;;
10565;SDS011;5331;48.148;16.326;2022-08-05T12:16:49;6.10;;;5.60;;
10565;SDS011;5331;48.148;16.326;2022-08-05T12:19:17;6.35;;;5.72;;
10565;SDS011;5331;48.148;16.326;2022-08-05T12:21:47;5.65;;;5.30;;
10565;SDS011;5331;48.148;16.326;2022-08-05T12:24:16;5.47;;;5.18;;
10565;SDS011;5331;48.148;16.326;2022-08-05T12:26:45;6.43;;;5.75;;
10565;SDS011;5331;48.148;16.326;2022-08-05T12:29:14;6.47;;;6.07;;
10565;SDS011;5331;48.148;16.326;2022-08-05T12:31:45;5.20;;;4.72;;
10565;SDS011;5331;48.148;16.326;2022-08-05T12:34:14;5.75;;;5.28;;
10565;SDS011;5331;48.148;16.326;2022-08-05T12:36:43;4.75;;;4.50;;
10565;SDS011;5331;48.148;16.326;2022-08-05T12:39:12;3.80;;;3.50;;
10565;SDS011;5331;48.148;16.326;2022-08-05T12:41:40;3.15;;;3.05;;
10565;SDS011;5331;48.148;16.326;2022-08-05T12:44:08;3.05;;;2.95;;
10565;SDS011;5331;48.148;16.326;2022-08-05T12:46:37;3.03;;;2.92;;
10565;SDS011;5331;48.148;16.326;2022-08-05T12:49:05;4.15;;;3.85;;
10565;SDS011;5331;48.148;16.326;2022-08-05T12:51:45;3.83;;;3.42;;
10565;SDS011;5331;48.148;16.326;2022-08-05T12:54:18;3.80;;;3.60;;
10565;SDS011;5331;48.148;16.326;2022-08-05T12:56:47;3.63;;;3.42;;
10565;SDS011;5331;48.148;16.326;2022-08-05T12:59:16;3.70;;;3.55;;
10565;SDS011;5331;48.148;16.326;2022-08-05T13:01:46;3.92;;;3.72;;
10565;SDS011;5331;48.148;16.326;2022-08-05T13:04:19;4.10;;;3.90;;
10565;SDS011;5331;48.148;16.326;2022-08-05T13:06:48;3.70;;;3.50;;
10565;SDS011;5331;48.148;16.326;2022-08-05T13:09:15;4.10;;;3.80;;
10565;SDS011;5331;48.148;16.326;2022-08-05T13:11:42;4.05;;;3.85;;
10565;SDS011;5331;48.148;16.326;2022-08-05T13:14:19;3.83;;;3.63;;
10565;SDS011;5331;48.148;16.326;2022-08-05T13:16:48;4.35;;;4.00;;
10565;SDS011;5331;48.148;16.326;2022-08-05T13:19:19;4.15;;;3.83;;
10565;SDS011;5331;48.148;16.326;2022-08-05T13:21:48;3.95;;;3.75;;
10565;SDS011;5331;48.148;16.326;2022-08-05T13:24:15;4.30;;;4.00;;
10565;SDS011;5331;48.148;16.326;2022-08-05T13:26:44;4.50;;;4.20;;
10565;SDS011;5331;48.148;16.326;2022-08-05T13:29:11;4.22;;;4.03;;
10565;SDS011;5331;48.148;16.326;2022-08-05T13:31:38;4.20;;;4.00;;
10565;SDS011;5331;48.148;16.326;2022-08-05T13:34:06;4.32;;;4.13;;
10565;SDS011;5331;48.148;16.326;2022-08-05T13:36:33;4.90;;;4.60;;
10565;SDS011;5331;48.148;16.326;2022-08-05T13:39:03;4.38;;;4.10;;
10565;SDS011;5331;48.148;16.326;2022-08-05T13:41:31;5.07;;;4.78;;
10565;SDS011;5331;48.148;16.326;2022-08-05T13:43:58;5.15;;;4.85;;
10565;SDS011;5331;48.148;16.326;2022-08-05T13:46:25;4.90;;;4.53;;
10565;SDS011;5331;48.148;16.326;2022-08-05T13:48:52;5.00;;;4.50;;
10565;SDS011;5331;48.148;16.326;2022-08-05T13:51:24;4.65;;;4.45;;
10565;SDS011;5331;48.148;16.326;2022-08-05T13:53:54;4.45;;;4.15;;
10565;SDS011;5331;48.148;16.326;2022-08-05T13:56:23;4.53;;;4.20;;
10565;SDS011;5331;48.148;16.326;2022-08-05T13:58:51;4.68;;;4.38;;
10565;SDS011;5331;48.148;16.326;2022-08-05T14:01:18;4.70;;;4.40;;
10565;SDS011;5331;48.148;16.326;2022-08-05T14:03:45;4.65;;;4.35;;
10565;SDS011;5331;48.148;16.326;2022-08-05T14:06:34;4.82;;;4.43;;
10565;SDS011;5331;48.148;16.326;2022-08-05T14:09:00;4.88;;;4.45;;
10565;SDS011;5331;48.148;16.326;2022-08-05T14:11:28;4.50;;;4.20;;
10565;SDS011;5331;48.148;16.326;2022-08-05T14:13:55;4.50;;;4.30;;
10565;SDS011;5331;48.148;16.326;2022-08-05T14:16:22;4.57;;;4.38;;
10565;SDS011;5331;48.148;16.326;2022-08-05T14:18:49;5.03;;;4.70;;
10565;SDS011;5331;48.148;16.326;2022-08-05T14:21:16;5.00;;;4.60;;
10565;SDS011;5331;48.148;16.326;2022-08-05T14:23:43;4.95;;;4.60;;
10565;SDS011;5331;48.148;16.326;2022-08-05T14:26:10;4.75;;;4.47;;
10565;SDS011;5331;48.148;16.326;2022-08-05T14:28:38;5.10;;;4.80;;
10565;SDS011;5331;48.148;16.326;2022-08-05T14:31:05;5.10;;;4.70;;
10565;SDS011;5331;48.148;16.326;2022-08-05T14:33:33;4.80;;;4.60;;
10565;SDS011;5331;48.148;16.326;2022-08-05T14:36:00;4.85;;;4.65;;
10565;SDS011;5331;48.148;16.326;2022-08-05T14:38:28;5.47;;;5.00;;
10565;SDS011;5331;48.148;16.326;2022-08-05T14:40:55;4.80;;;4.53;;
10565;SDS011;5331;48.148;16.326;2022-08-05T14:43:22;4.50;;;4.30;;
10565;SDS011;5331;48.148;16.326;2022-08-05T14:45:50;4.63;;;4.35;;
10565;SDS011;5331;48.148;16.326;2022-08-05T14:48:17;4.90;;;4.40;;
10565;SDS011;5331;48.148;16.326;2022-08-05T14:50:44;4.68;;;4.35;;
10565;SDS011;5331;48.148;16.326;2022-08-05T14:53:11;4.47;;;4.18;;
10565;SDS011;5331;48.148;16.326;2022-08-05T14:55:38;4.97;;;4.68;;
10565;SDS011;5331;48.148;16.326;2022-08-05T14:58:05;4.70;;;4.35;;
10565;SDS011;5331;48.148;16.326;2022-08-05T15:00:33;4.95;;;4.65;;
10565;SDS011;5331;48.148;16.326;2022-08-05T15:03:01;4.88;;;4.68;;
10565;SDS011;5331;48.148;16.326;2022-08-05T15:05:29;4.40;;;4.03;;
10565;SDS011;5331;48.148;16.326;2022-08-05T15:07:56;4.53;;;4.32;;
10565;SDS011;5331;48.148;16.326;2022-08-05T15:10:23;4.78;;;4.47;;
10565;SDS011;5331;48.148;16.326;2022-08-05T15:12:50;4.55;;;4.35;;